Time;durP1;ratioP1;P1;durP2;ratioP2;P2;SDS_P1;SDS_P2;PMS_P1;PMS_P2;Temp;Humidity;BMP_temperature;BMP_pressure;BME280_temperature;BME280_humidity;BME280_pressure;Samples;Min_cycle;Max_cycle;Signal;HPM_P1;HPM_P2
2022/07/31 00:00:27;;;;;;;8.73;4.75;;;;;;;19.51;75.51;98905.38;4437885;32;35027;-75
2022/07/31 00:02:55;;;;;;;7.45;5.20;;;;;;;19.41;75.45;98909.44;4452958;32;35239;-75
2022/07/31 00:05:24;;;;;;;7.20;5.25;;;;;;;19.27;76.30;98912.81;4446981;32;33504;-75
2022/07/31 00:07:53;;;;;;;8.30;5.20;;;;;;;19.22;76.21;98909.56;4437251;32;34747;-76
2022/07/31 00:10:21;;;;;;;7.55;5.40;;;;;;;19.76;74.16;98904.91;4437871;32;35915;-75
2022/07/31 00:12:49;;;;;;;8.73;5.45;;;;;;;19.45;75.42;98906.56;4451613;32;34691;-75
2022/07/31 00:15:17;;;;;;;12.68;8.10;;;;;;;19.10;77.00;98901.38;4453249;32;33556;-77
2022/07/31 00:17:45;;;;;;;8.45;5.65;;;;;;;19.18;76.76;98892.19;4442264;32;34806;-76
2022/07/31 00:20:15;;;;;;;9.88;5.93;;;;;;;19.12;76.99;98893.38;4438802;32;35119;-75
2022/07/31 00:22:45;;;;;;;10.07;6.35;;;;;;;19.26;76.13;98895.28;4450616;32;35282;-76
2022/07/31 00:25:14;;;;;;;9.57;6.70;;;;;;;19.08;77.17;98890.06;4449248;32;33670;-75
2022/07/31 00:27:43;;;;;;;11.43;6.78;;;;;;;18.70;78.53;98898.13;4437291;32;34852;-75
2022/07/31 00:30:16;;;;;;;10.25;7.00;;;;;;;18.95;77.80;98896.91;4438457;32;35023;-75
2022/07/31 00:32:44;;;;;;;10.85;6.22;;;;;;;19.04;77.71;98896.44;4438235;32;35089;-75
2022/07/31 00:35:12;;;;;;;10.43;7.00;;;;;;;18.66;79.13;98893.97;4440276;32;33575;-75
2022/07/31 00:37:41;;;;;;;11.55;7.35;;;;;;;18.54;79.25;98884.03;4441687;32;33889;-76
2022/07/31 00:40:12;;;;;;;11.00;6.95;;;;;;;18.71;79.15;98894.59;4450930;32;35212;-78
2022/07/31 00:42:40;;;;;;;12.37;8.18;;;;;;;18.66;79.29;98886.06;4437599;32;34257;-76
2022/07/31 00:45:09;;;;;;;11.05;7.40;;;;;;;18.45;79.96;98892.41;4452705;32;34560;-76
2022/07/31 00:47:41;;;;;;;8.77;6.28;;;;;;;18.57;79.83;98899.72;4451495;32;33220;-75
2022/07/31 00:50:10;;;;;;;11.38;6.00;;;;;;;18.62;79.46;98895.06;4452491;32;35132;-76
2022/07/31 00:52:38;;;;;;;11.32;6.87;;;;;;;18.74;78.61;98896.19;4451127;32;34375;-76
2022/07/31 00:55:06;;;;;;;9.07;6.32;;;;;;;18.75;77.75;98896.13;4444494;32;33251;-77
2022/07/31 00:57:35;;;;;;;8.35;5.43;;;;;;;18.76;77.42;98905.75;4441967;32;34027;-75
2022/07/31 01:00:04;;;;;;;9.18;5.87;;;;;;;18.86;76.93;98892.94;4437714;32;35752;-75
2022/07/31 01:02:32;;;;;;;6.95;5.35;;;;;;;18.99;75.84;98901.09;4436511;32;34505;-75
2022/07/31 01:05:00;;;;;;;7.50;5.37;;;;;;;19.17;75.34;98901.91;4438205;32;33476;-75
2022/07/31 01:07:28;;;;;;;7.80;5.30;;;;;;;18.83;76.63;98894.91;4446528;32;34038;-75
2022/07/31 01:09:58;;;;;;;8.35;5.10;;;;;;;18.88;76.67;98895.53;4452283;32;33642;-75
2022/07/31 01:12:35;;;;;;;8.57;5.28;;;;;;;18.94;76.54;98898.69;4440350;32;33702;-75
2022/07/31 01:15:06;;;;;;;7.25;4.50;;;;;;;19.05;75.81;98906.06;4436973;32;33495;-75
2022/07/31 01:17:35;;;;;;;6.85;4.78;;;;;;;19.14;75.65;98913.47;4445031;32;34013;-75
2022/07/31 01:20:05;;;;;;;5.57;4.22;;;;;;;19.07;75.47;98903.34;4451040;32;35800;-76
2022/07/31 01:22:41;;;;;;;5.22;3.83;;;;;;;19.32;74.20;98905.50;4444040;32;35320;-75
2022/07/31 01:25:51;;;;;;;7.65;4.87;;;;;;;19.17;75.43;98907.19;4440394;32;33200;-75
2022/07/31 01:28:25;;;;;;;7.05;4.18;;;;;;;19.65;72.35;98915.19;4420889;32;34835;-75
2022/07/31 01:31:04;;;;;;;5.85;4.43;;;;;;;19.56;72.98;98913.06;4450737;32;35080;-75
2022/07/31 01:34:02;;;;;;;8.02;4.30;;;;;;;19.49;73.48;98910.75;4439371;32;34081;-75
2022/07/31 01:36:33;;;;;;;5.10;3.78;;;;;;;19.37;73.59;98907.91;4427705;32;34098;-75
2022/07/31 01:39:03;;;;;;;5.50;4.07;;;;;;;19.29;74.19;98917.09;4454466;32;34030;-75
2022/07/31 01:41:35;;;;;;;7.05;4.45;;;;;;;19.60;72.74;98919.88;4453331;32;34378;-75
2022/07/31 01:44:04;;;;;;;5.03;3.70;;;;;;;19.37;73.32;98924.59;4439562;32;35142;-75
2022/07/31 01:46:33;;;;;;;4.82;3.22;;;;;;;19.16;74.92;98926.59;4438347;32;33482;-75
2022/07/31 01:49:08;;;;;;;4.80;3.73;;;;;;;18.79;76.19;98927.63;4439263;32;33671;-75
2022/07/31 01:51:38;;;;;;;5.95;4.07;;;;;;;18.96;75.56;98930.28;4440604;32;35026;-78
2022/07/31 01:54:07;;;;;;;5.95;3.60;;;;;;;19.37;73.10;98919.31;4454164;32;34535;-76
2022/07/31 01:56:36;;;;;;;5.30;3.70;;;;;;;18.99;75.17;98919.56;4452211;32;34343;-75
2022/07/31 01:59:04;;;;;;;5.80;3.53;;;;;;;19.46;73.15;98912.69;4438975;32;33856;-75
2022/07/31 02:01:50;;;;;;;4.95;3.83;;;;;;;19.44;72.08;98915.41;4438823;32;35077;-78
2022/07/31 02:04:19;;;;;;;5.53;3.75;;;;;;;19.40;73.39;98918.31;4439442;32;35087;-75
2022/07/31 02:06:48;;;;;;;5.03;3.50;;;;;;;19.37;73.64;98923.75;4439108;32;33452;-76
2022/07/31 02:09:18;;;;;;;6.00;3.47;;;;;;;19.73;71.55;98915.62;4438603;32;34718;-75
2022/07/31 02:11:46;;;;;;;5.12;3.20;;;;;;;19.38;72.09;98915.75;4442168;32;34951;-76
2022/07/31 02:14:23;;;;;;;5.30;3.25;;;;;;;19.19;72.75;98912.41;4452106;32;35259;-77
2022/07/31 02:16:51;;;;;;;4.90;3.00;;;;;;;19.20;72.98;98906.16;4440953;32;34225;-76
2022/07/31 02:19:21;;;;;;;3.75;2.62;;;;;;;19.29;72.72;98905.69;4444648;32;34875;-75
2022/07/31 02:21:50;;;;;;;7.32;2.80;;;;;;;19.38;72.13;98899.91;4438360;32;35118;-75
2022/07/31 02:24:18;;;;;;;5.25;3.50;;;;;;;19.18;72.48;98898.31;4439766;32;34457;-75
2022/07/31 02:26:46;;;;;;;4.90;3.25;;;;;;;18.87;74.64;98899.09;4439315;32;33540;-75
2022/07/31 02:29:15;;;;;;;5.87;3.65;;;;;;;19.14;73.27;98886.25;4438798;32;33823;-75
2022/07/31 02:31:49;;;;;;;6.72;3.67;;;;;;;19.20;72.43;98892.97;4425743;32;34308;-75
2022/07/31 02:34:31;;;;;;;4.78;3.47;;;;;;;18.87;74.42;98889.41;4438324;32;34522;-75
2022/07/31 02:37:00;;;;;;;6.30;3.70;;;;;;;18.74;75.03;98886.53;4449762;32;33450;-75
2022/07/31 02:39:29;;;;;;;4.55;3.37;;;;;;;18.82;74.78;98886.16;4455134;32;34756;-75
2022/07/31 02:41:59;;;;;;;5.00;3.65;;;;;;;18.57;75.74;98881.25;4449884;32;34937;-75
2022/07/31 02:44:31;;;;;;;5.18;3.67;;;;;;;18.76;75.20;98874.09;4438853;32;34451;-78
2022/07/31 02:47:01;;;;;;;5.15;3.35;;;;;;;19.03;73.56;98876.25;4437635;32;34229;-74
2022/07/31 02:49:32;;;;;;;6.00;3.30;;;;;;;19.04;73.41;98887.66;4438670;32;33952;-76
2022/07/31 02:52:00;;;;;;;5.80;3.53;;;;;;;18.79;74.05;98880.13;4443216;32;34526;-75
2022/07/31 02:54:29;;;;;;;4.95;3.50;;;;;;;18.53;74.73;98875.28;4453606;32;34494;-75
2022/07/31 02:56:58;;;;;;;5.20;3.50;;;;;;;19.03;72.36;98881.53;4442087;32;33396;-75
2022/07/31 02:59:26;;;;;;;8.10;3.53;;;;;;;18.68;73.81;98888.63;4439052;32;33914;-75
2022/07/31 03:01:55;;;;;;;4.82;3.45;;;;;;;19.02;72.64;98885.09;4438702;32;34945;-75
2022/07/31 03:04:23;;;;;;;6.78;3.95;;;;;;;18.91;72.72;98890.09;4439507;32;35323;-75
2022/07/31 03:06:52;;;;;;;4.10;3.20;;;;;;;18.94;72.30;98889.94;4439247;32;33441;-75
2022/07/31 03:09:20;;;;;;;5.03;3.75;;;;;;;18.64;73.41;98897.63;4439401;32;33966;-75
2022/07/31 03:11:48;;;;;;;4.28;2.87;;;;;;;18.92;72.02;98897.09;4438703;32;36057;-75
2022/07/31 03:14:17;;;;;;;6.90;3.78;;;;;;;18.71;72.83;98899.84;4441801;32;35188;-75
2022/07/31 03:16:46;;;;;;;6.00;3.87;;;;;;;18.89;71.72;98894.59;4438417;32;34428;-75
2022/07/31 03:19:15;;;;;;;6.37;4.00;;;;;;;18.89;71.71;98890.16;4437960;32;34008;-74
2022/07/31 03:21:43;;;;;;;7.45;3.87;;;;;;;19.01;71.65;98899.22;4438849;32;35988;-78
2022/07/31 03:24:11;;;;;;;6.45;3.85;;;;;;;18.53;73.41;98879.69;4438114;32;34381;-75
2022/07/31 03:26:39;;;;;;;13.62;4.12;;;;;;;18.80;73.04;98887.13;4439143;32;34304;-77
2022/07/31 03:29:07;;;;;;;4.78;3.95;;;;;;;19.08;71.17;98884.78;4454369;32;35971;-75
2022/07/31 03:31:55;;;;;;;8.98;4.65;;;;;;;18.99;72.50;98877.34;4450885;32;34908;-75
2022/07/31 03:34:22;;;;;;;7.37;4.20;;;;;;;18.99;72.27;98881.75;4438619;32;35002;-75
2022/07/31 03:36:52;;;;;;;8.07;4.93;;;;;;;18.74;73.83;98878.59;4439074;32;33392;-75
2022/07/31 03:39:20;;;;;;;7.82;4.50;;;;;;;18.87;72.89;98878.84;4437863;32;33816;-75
2022/07/31 03:41:50;;;;;;;6.28;4.55;;;;;;;19.00;73.17;98872.94;4439795;32;35131;-77
2022/07/31 03:44:19;;;;;;;6.12;5.00;;;;;;;18.68;73.50;98873.63;4436967;32;33886;-75
2022/07/31 03:46:47;;;;;;;5.87;4.62;;;;;;;18.65;74.54;98879.06;4439394;32;33640;-75
2022/07/31 03:49:16;;;;;;;7.78;4.95;;;;;;;18.71;74.46;98870.84;4447482;32;34692;-75
2022/07/31 03:51:44;;;;;;;9.10;5.32;;;;;;;18.73;73.95;98876.88;4432579;32;34255;-75
2022/07/31 03:54:12;;;;;;;7.68;5.15;;;;;;;19.19;71.78;98872.81;4439402;32;34534;-75
2022/07/31 03:56:45;;;;;;;6.80;4.68;;;;;;;18.84;73.49;98875.53;4437567;32;32513;-75
2022/07/31 03:59:16;;;;;;;6.80;5.05;;;;;;;19.19;71.92;98876.28;4438227;32;34028;-75
2022/07/31 04:01:44;;;;;;;8.25;4.87;;;;;;;18.80;72.83;98879.22;4440316;32;35028;-75
2022/07/31 04:04:27;;;;;;;6.65;4.62;;;;;;;18.94;72.83;98874.09;4454685;32;34457;-75
2022/07/31 04:06:56;;;;;;;7.53;5.00;;;;;;;18.99;71.91;98881.75;4447716;32;33548;-75
2022/07/31 04:09:24;;;;;;;9.13;5.10;;;;;;;18.85;72.95;98880.72;4441834;32;34785;-75
2022/07/31 04:11:52;;;;;;;6.43;4.65;;;;;;;18.97;72.08;98873.94;4440345;32;35864;-75
2022/07/31 04:14:20;;;;;;;6.45;4.97;;;;;;;19.09;71.86;98877.72;4454701;32;34566;-75
2022/07/31 04:16:48;;;;;;;7.60;4.70;;;;;;;18.87;72.42;98884.12;4446512;32;33518;-74
2022/07/31 04:19:17;;;;;;;6.35;5.07;;;;;;;19.07;72.33;98888.34;4445618;32;33857;-75
2022/07/31 04:21:44;;;;;;;5.78;4.45;;;;;;;19.09;71.18;98885.63;4444895;32;35244;-74
2022/07/31 04:24:15;;;;;;;6.35;4.68;;;;;;;19.21;70.65;98892.03;4438124;32;34365;-76
2022/07/31 04:26:44;;;;;;;9.73;4.78;;;;;;;18.96;71.47;98897.78;4444449;32;33351;-74
2022/07/31 04:29:12;;;;;;;6.87;4.85;;;;;;;18.64;72.40;98887.91;4444838;32;34647;-74
2022/07/31 04:31:40;;;;;;;6.43;4.47;;;;;;;18.86;72.01;98897.38;4441884;32;34927;-74
2022/07/31 04:34:08;;;;;;;6.55;3.75;;;;;;;18.72;72.07;98893.66;4446000;32;34367;-74
2022/07/31 04:36:37;;;;;;;6.82;4.57;;;;;;;18.92;71.33;98897.09;4445550;32;33668;-74
2022/07/31 04:39:05;;;;;;;5.30;3.97;;;;;;;18.63;72.75;98891.47;4443908;32;33816;-74
2022/07/31 04:41:33;;;;;;;5.80;3.87;;;;;;;19.12;70.40;98894.22;4449698;32;35111;-77
2022/07/31 04:44:01;;;;;;;9.48;4.18;;;;;;;18.77;71.45;98891.62;4438678;32;34308;-74
2022/07/31 04:46:30;;;;;;;5.53;4.05;;;;;;;18.77;71.71;98894.25;4438734;32;34160;-75
2022/07/31 04:48:58;;;;;;;7.00;4.18;;;;;;;18.65;72.82;98892.25;4452637;32;33706;-77
2022/07/31 04:51:26;;;;;;;6.70;4.00;;;;;;;18.96;71.41;98890.69;4436966;32;35966;-76
2022/07/31 04:53:55;;;;;;;6.05;4.05;;;;;;;18.37;73.42;98888.37;4438924;32;33838;-74
2022/07/31 04:56:40;;;;;;;5.45;4.10;;;;;;;18.67;72.13;98890.41;4437053;32;34547;-75
2022/07/31 04:59:12;;;;;;;9.35;4.82;;;;;;;18.81;71.94;98888.81;4453288;32;34146;-75
2022/07/31 05:01:41;;;;;;;6.68;4.35;;;;;;;18.86;71.70;98892.12;4453715;32;35180;-77
2022/07/31 05:04:10;;;;;;;5.28;4.18;;;;;;;18.76;71.51;98892.56;4439349;32;34502;-74
2022/07/31 05:06:45;;;;;;;5.37;3.95;;;;;;;18.83;71.48;98887.00;4439492;32;33520;-80
2022/07/31 05:09:17;;;;;;;4.78;3.87;;;;;;;18.66;72.59;98891.31;4440219;32;34839;-75
2022/07/31 05:11:50;;;;;;;;;;;;;;;18.48;73.25;98892.28;4429257;32;34608;-74
2022/07/31 05:14:20;;;;;;;5.35;3.83;;;;;;;18.52;73.29;98884.12;4439073;32;34678;-74
2022/07/31 05:16:48;;;;;;;5.78;4.00;;;;;;;18.24;74.68;98889.91;4437870;32;32295;-78
2022/07/31 05:19:16;;;;;;;6.47;4.18;;;;;;;18.80;72.30;98881.88;4426556;32;33965;-78
2022/07/31 05:21:46;;;;;;;6.30;4.30;;;;;;;18.58;73.89;98888.22;4426101;32;34666;-77
2022/07/31 05:24:21;;;;;;;7.57;4.10;;;;;;;18.30;75.26;98889.63;4440353;32;35061;-75
2022/07/31 05:27:01;;;;;;;8.00;3.95;;;;;;;18.19;76.74;98886.66;4438860;32;33634;-75
2022/07/31 05:29:30;;;;;;;6.40;4.65;;;;;;;18.27;77.07;98889.78;4438922;32;33161;-76
2022/07/31 05:32:00;;;;;;;11.40;4.53;;;;;;;17.91;79.90;98887.13;4439284;32;34658;-74
2022/07/31 05:34:28;;;;;;;6.12;4.40;;;;;;;18.24;79.03;98892.53;4455732;32;34522;-78
2022/07/31 05:36:59;;;;;;;6.20;4.85;;;;;;;18.24;78.31;98884.62;4440680;32;33444;-75
2022/07/31 05:39:29;;;;;;;9.30;5.10;;;;;;;18.25;78.28;98896.91;4426729;32;33659;-75
2022/07/31 05:42:00;;;;;;;7.72;5.03;;;;;;;18.18;78.36;98893.72;4440030;32;35259;-75
2022/07/31 05:44:29;;;;;;;9.18;5.47;;;;;;;18.34;77.72;98895.59;4440341;32;35100;-76
2022/07/31 05:46:58;;;;;;;6.93;5.15;;;;;;;17.94;80.14;98894.91;4439513;32;33488;-76
2022/07/31 05:49:27;;;;;;;7.40;5.28;;;;;;;17.86;80.19;98899.66;4440156;32;33955;-74
2022/07/31 05:51:56;;;;;;;8.77;5.00;;;;;;;18.11;78.45;98907.28;4450429;32;35778;-76
2022/07/31 05:54:24;;;;;;;6.47;5.05;;;;;;;18.21;77.73;98900.59;4439748;32;35130;-75
2022/07/31 05:56:59;;;;;;;8.52;5.25;;;;;;;18.07;78.58;98893.41;4439778;32;33428;-76
2022/07/31 05:59:27;;;;;;;8.43;4.65;;;;;;;18.08;78.26;98910.87;4426298;32;34162;-74
2022/07/31 06:01:55;;;;;;;10.05;5.00;;;;;;;18.04;78.09;98904.06;4437985;32;35041;-76
2022/07/31 06:04:25;;;;;;;5.95;4.50;;;;;;;18.35;76.44;98903.44;4439719;32;35335;-75
2022/07/31 06:06:53;;;;;;;5.53;4.20;;;;;;;18.42;76.26;98911.03;4439927;32;33595;-75
2022/07/31 06:09:21;;;;;;;6.25;4.22;;;;;;;17.93;77.90;98915.12;4441230;32;31812;-74
2022/07/31 06:11:52;;;;;;;5.55;4.35;;;;;;;18.55;75.58;98910.34;4439049;32;34713;-75
2022/07/31 06:14:20;;;;;;;6.72;4.85;;;;;;;18.08;77.31;98915.31;4438053;32;34365;-75
2022/07/31 06:16:49;;;;;;;7.78;4.35;;;;;;;18.21;76.60;98921.69;4439977;32;33481;-75
2022/07/31 06:19:19;;;;;;;5.93;4.00;;;;;;;18.17;76.81;98913.06;4438785;32;34752;-75
2022/07/31 06:21:51;;;;;;;5.72;4.40;;;;;;;18.34;76.20;98917.53;4438915;32;34965;-75
2022/07/31 06:24:21;;;;;;;5.28;3.87;;;;;;;18.48;75.62;98918.63;4438292;32;33552;-75
2022/07/31 06:26:49;;;;;;;5.22;4.07;;;;;;;18.28;76.84;98925.75;4438791;32;34116;-75
2022/07/31 06:29:17;;;;;;;5.18;4.10;;;;;;;18.19;78.07;98928.81;4453150;32;33940;-75
2022/07/31 06:31:45;;;;;;;7.78;3.87;;;;;;;17.87;79.36;98933.00;4441880;32;34671;-74
2022/07/31 06:34:14;;;;;;;6.32;4.75;;;;;;;18.07;78.55;98930.28;4440869;32;34768;-73
2022/07/31 06:36:47;;;;;;;7.57;4.05;;;;;;;17.77;80.18;98935.16;4440089;32;33574;-73
2022/07/31 06:39:16;;;;;;;6.62;4.35;;;;;;;18.06;79.22;98927.72;4437453;32;32428;-73
2022/07/31 06:41:46;;;;;;;5.40;3.92;;;;;;;18.22;78.11;98933.09;4446094;32;36077;-74
2022/07/31 06:44:22;;;;;;;6.12;4.57;;;;;;;18.23;78.30;98935.66;4448843;32;35028;-72
2022/07/31 06:46:54;;;;;;;5.28;4.00;;;;;;;18.19;78.33;98942.00;4438544;32;33427;-72
2022/07/31 06:49:24;;;;;;;6.75;3.97;;;;;;;18.31;77.34;98944.03;4451306;32;33959;-72
2022/07/31 06:51:52;;;;;;;6.15;4.22;;;;;;;18.56;75.99;98937.53;4453346;32;35806;-73
2022/07/31 06:54:20;;;;;;;4.65;3.45;;;;;;;18.63;75.25;98941.56;4439956;32;35147;-74
2022/07/31 06:56:54;;;;;;;5.95;3.80;;;;;;;18.30;77.15;98944.97;4438577;32;33131;-73
2022/07/31 06:59:22;;;;;;;4.53;3.40;;;;;;;18.82;74.49;98940.69;4438194;32;33824;-74
2022/07/31 07:02:07;;;;;;;6.03;3.40;;;;;;;18.83;73.84;98923.91;4438220;32;35221;-76
2022/07/31 07:04:36;;;;;;;5.93;4.15;;;;;;;18.85;73.99;98932.63;4449145;32;33491;-77
2022/07/31 07:07:24;;;;;;;4.87;3.08;;;;;;;18.52;74.64;98936.00;4436959;32;34273;-73
2022/07/31 07:09:58;;;;;;;4.80;3.37;;;;;;;18.72;74.15;98938.50;4438005;32;34858;-77
2022/07/31 07:12:30;;;;;;;4.55;3.40;;;;;;;18.97;73.29;98932.00;4438333;32;35036;-75
2022/07/31 07:14:58;;;;;;;5.50;3.70;;;;;;;19.03;72.67;98926.37;4438409;32;34391;-75
2022/07/31 07:17:26;;;;;;;4.62;3.20;;;;;;;18.68;74.08;98933.44;4439158;32;34208;-76
2022/07/31 07:19:57;;;;;;;4.80;2.75;;;;;;;18.82;72.07;98927.50;4438282;32;33865;-77
2022/07/31 07:22:25;;;;;;;4.25;2.60;;;;;;;19.01;72.07;98938.81;4438660;32;35203;-76
2022/07/31 07:25:00;;;;;;;5.32;2.83;;;;;;;18.84;71.63;98931.75;4439505;32;34463;-77
2022/07/31 07:27:28;;;;;;;3.37;2.55;;;;;;;19.29;70.99;98938.22;4449278;32;33510;-76
2022/07/31 07:29:56;;;;;;;3.92;2.78;;;;;;;19.22;69.59;98926.28;4438416;32;33972;-75
2022/07/31 07:32:25;;;;;;;4.00;2.30;;;;;;;19.16;70.73;98916.03;4437940;32;35789;-75
2022/07/31 07:34:54;;;;;;;3.53;2.75;;;;;;;18.79;71.98;98927.63;4439507;32;34458;-75
2022/07/31 07:37:29;;;;;;;3.85;2.47;;;;;;;18.62;72.29;98918.78;4438934;32;33571;-76
2022/07/31 07:40:07;;;;;;;4.05;2.70;;;;;;;19.29;69.83;98926.81;4438382;32;34018;-75
2022/07/31 07:42:35;;;;;;;4.20;2.62;;;;;;;19.23;70.05;98917.41;4438994;32;35943;-75
2022/07/31 07:45:04;;;;;;;3.72;2.67;;;;;;;19.54;69.26;98914.94;4439381;32;34418;-74
2022/07/31 07:47:35;;;;;;;3.83;2.50;;;;;;;19.52;69.60;98918.50;4438830;32;33042;-78
2022/07/31 07:50:24;;;;;;;9.07;4.07;;;;;;;19.91;67.39;98928.75;4438778;32;34017;-75
2022/07/31 07:52:59;;;;;;;3.87;2.70;;;;;;;19.71;68.21;98917.47;4438898;32;34939;-75
2022/07/31 07:55:31;;;;;;;4.20;2.85;;;;;;;19.55;68.84;98932.47;4439122;32;35159;-77
2022/07/31 07:58:08;;;;;;;3.47;2.28;;;;;;;19.91;66.77;98918.19;4415164;32;33689;-77
2022/07/31 08:00:41;;;;;;;2.55;2.08;;;;;;;19.81;67.25;98924.00;4434477;32;32562;-76
2022/07/31 08:03:10;;;;;;;3.40;2.25;;;;;;;19.25;69.05;98923.50;4445738;32;35774;-76
2022/07/31 08:05:58;;;;;;;4.47;2.40;;;;;;;20.05;67.08;98931.50;4441127;32;33245;-75
2022/07/31 08:08:26;;;;;;;2.75;1.98;;;;;;;20.50;64.67;98931.59;4450468;32;33121;-76
2022/07/31 08:10:58;;;;;;;4.37;2.20;;;;;;;20.38;64.67;98933.16;4440944;32;33207;-76
2022/07/31 08:13:29;;;;;;;3.78;2.40;;;;;;;19.97;66.51;98944.28;4450946;32;35238;-77
2022/07/31 08:16:03;;;;;;;3.87;2.37;;;;;;;20.09;66.27;98951.53;4439094;32;33960;-76
2022/07/31 08:18:31;;;;;;;3.45;2.10;;;;;;;20.10;65.30;98955.91;4438501;32;33859;-76
2022/07/31 08:20:59;;;;;;;3.65;2.30;;;;;;;20.39;64.81;98946.28;4438845;32;33776;-77
2022/07/31 08:23:27;;;;;;;2.62;2.00;;;;;;;20.48;64.33;98955.50;4437742;32;35962;-77
2022/07/31 08:25:55;;;;;;;3.50;2.00;;;;;;;20.16;65.34;98952.91;4438829;32;34441;-77
2022/07/31 08:28:25;;;;;;;2.62;1.77;;;;;;;20.96;62.95;98945.62;4438448;32;34265;-77
2022/07/31 08:30:53;;;;;;;3.17;2.00;;;;;;;21.07;62.16;98957.37;4436087;32;33851;-78
2022/07/31 08:33:22;;;;;;;3.78;1.83;;;;;;;21.71;61.99;98942.88;4438392;32;35048;-78
2022/07/31 08:35:50;;;;;;;3.60;2.05;;;;;;;21.65;61.30;98953.00;4438566;32;34367;-79
2022/07/31 08:38:18;;;;;;;2.35;1.40;;;;;;;21.41;60.20;98945.59;4440386;32;33584;-77
2022/07/31 08:40:47;;;;;;;2.78;1.65;;;;;;;21.35;60.02;98956.56;4454097;32;34117;-76
2022/07/31 08:43:16;;;;;;;3.12;1.70;;;;;;;20.86;61.56;98954.22;4450125;32;36030;-76
2022/07/31 08:46:04;;;;;;;1.98;1.50;;;;;;;20.96;61.37;98950.94;4438339;32;34982;-77
2022/07/31 08:48:33;;;;;;;3.37;1.90;;;;;;;21.20;60.85;98955.72;4440574;32;33427;-77
2022/07/31 08:51:02;;;;;;;2.45;2.20;;;;;;;21.21;60.28;98960.03;4452578;32;33890;-80
2022/07/31 08:53:35;;;;;;;5.22;1.70;;;;;;;21.00;61.43;98962.19;4447748;32;35054;-79
2022/07/31 08:56:05;;;;;;;4.18;1.85;;;;;;;20.40;62.64;98969.16;4438550;32;33871;-78
2022/07/31 08:58:33;;;;;;;4.45;1.50;;;;;;;20.60;62.32;98959.22;4437711;32;33450;-77
2022/07/31 09:01:10;;;;;;;3.12;1.60;;;;;;;20.00;63.84;98965.28;4437358;32;34743;-80
2022/07/31 09:03:39;;;;;;;2.15;1.52;;;;;;;19.84;64.04;98966.13;4440907;32;36085;-79
2022/07/31 09:06:06;;;;;;;1.87;1.50;;;;;;;19.96;63.76;98979.56;4453590;32;34546;-79
2022/07/31 09:08:36;;;;;;;2.45;1.65;;;;;;;20.06;62.79;98970.19;4445960;32;33715;-79
2022/07/31 09:11:08;;;;;;;2.45;1.80;;;;;;;19.87;63.27;98979.16;4436664;32;33961;-78
2022/07/31 09:13:37;;;;;;;4.30;2.33;;;;;;;19.58;65.16;98979.84;4437967;32;35985;-77
2022/07/31 09:16:06;;;;;;;3.35;1.58;;;;;;;19.25;66.45;98970.13;4424438;32;33738;-77
2022/07/31 09:18:34;;;;;;;2.17;1.60;;;;;;;19.81;64.26;98981.28;4439330;32;34250;-79
2022/07/31 09:21:04;;;;;;;2.58;1.70;;;;;;;19.40;65.45;98971.97;4453668;32;34000;-79
2022/07/31 09:23:43;;;;;;;8.85;2.03;;;;;;;19.13;67.17;98985.69;4449846;32;35062;-80
2022/07/31 09:26:12;;;;;;;4.25;1.70;;;;;;;18.87;67.68;98975.62;4437779;32;35380;-80
2022/07/31 09:28:44;;;;;;;6.80;2.45;;;;;;;19.18;67.04;98989.88;4436670;32;33739;-77
2022/07/31 09:31:12;;;;;;;3.72;2.00;;;;;;;18.79;68.93;98989.13;4437746;32;34049;-78
2022/07/31 09:33:44;;;;;;;4.90;1.90;;;;;;;18.85;68.96;98974.84;4436493;32;35182;-78
2022/07/31 09:36:22;;;;;;;3.03;2.03;;;;;;;19.22;68.00;98979.06;4424365;32;33248;-78
2022/07/31 09:38:52;;;;;;;3.97;2.20;;;;;;;19.06;69.06;98976.38;4435507;32;33534;-78
2022/07/31 09:41:24;;;;;;;5.72;2.40;;;;;;;19.00;68.70;98975.84;4437546;32;32488;-78
2022/07/31 09:44:13;;;;;;;5.10;2.00;;;;;;;19.14;68.01;98976.81;4439060;32;35932;-78
2022/07/31 09:46:43;;;;;;;2.85;2.03;;;;;;;19.61;66.37;98974.41;4439888;32;34366;-77
2022/07/31 09:49:12;;;;;;;2.35;1.92;;;;;;;19.20;66.91;98974.78;4444719;32;33470;-77
2022/07/31 09:51:42;;;;;;;3.42;1.90;;;;;;;19.55;66.41;98972.09;4454431;32;34827;-78
2022/07/31 09:54:21;;;;;;;7.20;2.17;;;;;;;19.39;66.66;98975.53;4453311;32;35943;-77
2022/07/31 09:56:51;;;;;;;3.83;1.90;;;;;;;19.44;66.70;98980.59;4454443;32;34572;-77
2022/07/31 09:59:19;;;;;;;3.58;2.10;;;;;;;20.15;65.32;98988.19;4436885;32;33697;-78
2022/07/31 10:01:48;;;;;;;2.22;1.70;;;;;;;19.99;64.63;98984.69;4439546;32;34005;-78
2022/07/31 10:04:17;;;;;;;2.20;1.70;;;;;;;19.78;64.42;98974.34;4438282;32;35080;-77
2022/07/31 10:06:47;;;;;;;2.92;2.10;;;;;;;19.70;65.46;98980.03;4438898;32;34571;-77
2022/07/31 10:09:20;;;;;;;3.67;2.00;;;;;;;19.88;64.71;98966.78;4445807;32;32660;-78
2022/07/31 10:11:49;;;;;;;4.82;2.10;;;;;;;19.77;65.04;98977.97;4454443;32;34597;-78
2022/07/31 10:14:21;;;;;;;3.72;2.40;;;;;;;19.82;64.07;98988.28;4449775;32;35191;-77
2022/07/31 10:16:51;;;;;;;3.97;2.17;;;;;;;19.68;64.97;98986.34;4440025;32;34541;-77
2022/07/31 10:19:21;;;;;;;3.60;2.10;;;;;;;19.37;66.24;98969.47;4446035;32;33518;-78
2022/07/31 10:21:54;;;;;;;3.30;2.03;;;;;;;19.85;66.10;98973.13;4454340;32;33851;-78
2022/07/31 10:24:26;;;;;;;1.87;1.67;;;;;;;20.35;64.02;98962.44;4453068;32;35990;-78
2022/07/31 10:26:57;;;;;;;2.40;2.05;;;;;;;20.57;63.23;98964.69;4455425;32;34486;-79
2022/07/31 10:29:30;;;;;;;3.85;2.00;;;;;;;20.40;63.05;98961.25;4447918;32;34311;-80
2022/07/31 10:32:00;;;;;;;3.50;2.12;;;;;;;19.91;64.18;98955.19;4438814;32;33898;-80
2022/07/31 10:34:28;;;;;;;4.75;2.37;;;;;;;19.82;64.41;98959.22;4444587;32;35819;-79
2022/07/31 10:37:09;;;;;;;4.05;2.55;;;;;;;19.72;64.74;98977.31;4455277;32;34423;-79
2022/07/31 10:39:57;;;;;;;4.35;2.30;;;;;;;20.51;62.75;98957.97;4445352;32;33421;-77
2022/07/31 10:42:38;;;;;;;2.90;1.90;;;;;;;20.19;63.73;98965.94;4450513;32;32442;-77
2022/07/31 10:45:09;;;;;;;3.72;2.00;;;;;;;20.11;62.73;98967.31;4453657;32;35068;-80
2022/07/31 10:47:40;;;;;;;2.83;1.83;;;;;;;20.18;62.11;98966.88;4437199;32;33302;-80
2022/07/31 10:50:22;;;;;;;4.22;2.42;;;;;;;20.22;61.99;98984.28;4437673;32;33777;-79
2022/07/31 10:52:53;;;;;;;2.87;2.28;;;;;;;20.37;61.74;98981.72;4437541;32;33941;-80
2022/07/31 10:55:28;;;;;;;5.22;2.55;;;;;;;20.25;61.32;98986.75;4438661;32;34864;-78
2022/07/31 10:58:06;;;;;;;3.60;2.17;;;;;;;20.23;60.67;98978.03;4439706;32;36430;-80
2022/07/31 11:00:35;;;;;;;3.53;2.00;;;;;;;20.61;60.21;98988.28;4446689;32;33401;-81
2022/07/31 11:03:15;;;;;;;2.70;1.87;;;;;;;20.77;60.14;99000.59;4439082;32;33996;-81
2022/07/31 11:05:56;;;;;;;13.88;2.40;;;;;;;20.64;59.89;98995.16;4438364;32;35071;-80
2022/07/31 11:08:43;;;;;;;2.95;2.00;;;;;;;20.73;58.70;98991.97;4438870;32;34509;-77
2022/07/31 11:11:13;;;;;;;3.42;1.95;;;;;;;21.11;57.45;99007.41;4439492;32;34181;-79
2022/07/31 11:13:54;;;;;;;3.87;2.00;;;;;;;21.02;57.02;98997.38;4441449;32;33986;-77
2022/07/31 11:16:22;;;;;;;2.75;1.75;;;;;;;20.94;57.84;98983.75;4439475;32;35223;-81
2022/07/31 11:18:57;;;;;;;4.43;2.30;;;;;;;21.32;56.94;99007.09;4438540;32;34601;-80
2022/07/31 11:21:43;;;;;;;3.65;2.17;;;;;;;21.10;57.43;98992.47;4439348;32;33607;-79
2022/07/31 11:24:20;;;;;;;3.22;2.15;;;;;;;21.47;55.59;99002.69;4439077;32;33823;-79
2022/07/31 11:26:51;;;;;;;;;;;;;;;21.14;56.47;99003.72;4439712;32;35007;-81
2022/07/31 11:29:35;;;;;;;4.97;1.90;;;;;;;21.30;55.50;99001.00;4439056;32;34795;-79
2022/07/31 11:32:23;;;;;;;4.53;1.98;;;;;;;21.46;55.57;99006.25;4437823;32;34301;-80
2022/07/31 11:34:54;;;;;;;3.47;1.75;;;;;;;22.12;54.69;99029.50;4445759;32;34020;-80
2022/07/31 11:37:29;;;;;;;2.65;1.80;;;;;;;22.17;54.67;99010.66;4453531;32;34732;-79
2022/07/31 11:40:13;;;;;;;3.78;1.92;;;;;;;22.46;53.32;99019.41;4452748;32;35334;-79
2022/07/31 11:42:42;;;;;;;3.30;2.00;;;;;;;22.76;52.51;99036.09;4454676;32;33632;-81
2022/07/31 11:45:11;;;;;;;2.62;1.52;;;;;;;22.80;51.85;99027.84;4431284;32;34610;-81
2022/07/31 11:47:40;;;;;;;3.92;2.03;;;;;;;22.72;52.10;99036.28;4437830;32;34999;-81
2022/07/31 11:50:30;;;;;;;2.87;1.50;;;;;;;22.41;52.15;99029.47;4439468;32;34505;-81
2022/07/31 11:53:03;;;;;;;2.58;1.75;;;;;;;22.36;52.08;99031.59;4437324;32;32775;-81